createdAt,value
2022-12-04T00:00:17.660Z,0.2
2022-12-04T00:02:18.746Z,0.2
2022-12-04T00:04:19.890Z,0.2
2022-12-04T00:06:24.210Z,0.2
2022-12-04T00:08:25.325Z,0.2
2022-12-04T00:10:26.424Z,0.2
2022-12-04T00:12:27.547Z,0.2
2022-12-04T00:14:28.692Z,0.2
2022-12-04T00:16:29.907Z,0.2
2022-12-04T00:18:30.891Z,0.2
2022-12-04T00:20:35.225Z,0.1
2022-12-04T00:22:36.345Z,0.2
2022-12-04T00:24:37.477Z,0.2
2022-12-04T00:30:40.766Z,0.2
2022-12-04T00:36:47.398Z,0.2
2022-12-04T00:38:48.478Z,0.2
2022-12-04T00:40:49.601Z,0.2
2022-12-04T00:42:50.727Z,0.2
2022-12-04T00:44:51.863Z,0.1
2022-12-04T00:46:52.946Z,0.1
2022-12-04T00:48:57.334Z,0.1
2022-12-04T00:50:58.439Z,0.2
2022-12-04T00:54:01.751Z,0.1
2022-12-04T00:56:03.159Z,0.2
2022-12-04T00:58:05.528Z,0.1
2022-12-04T01:00:06.571Z,0.2
2022-12-04T01:02:10.947Z,0.1
2022-12-04T01:04:12.059Z,0.2
2022-12-04T01:06:13.149Z,0.2
2022-12-04T01:08:14.366Z,0.2
2022-12-04T01:10:15.358Z,0.1
2022-12-04T01:12:20.685Z,0.1
2022-12-04T01:14:17.566Z,0.1
2022-12-04T01:16:21.986Z,0.2
2022-12-04T01:18:23.044Z,0.1
2022-12-04T01:20:24.163Z,0.2
2022-12-04T01:22:25.273Z,0.1
2022-12-04T01:24:26.411Z,0.2
2022-12-04T01:26:27.540Z,0.2
2022-12-04T01:28:28.618Z,0.2
2022-12-04T01:30:32.984Z,0.2
2022-12-04T01:36:36.359Z,0.2
2022-12-04T01:38:37.438Z,0.1
2022-12-04T01:40:38.551Z,0.2
2022-12-04T01:42:39.670Z,0.2
2022-12-04T01:44:44.060Z,0.1
2022-12-04T01:46:45.201Z,0.1
2022-12-04T01:48:46.277Z,0.2
2022-12-04T01:49:48.486Z,0.2
2022-12-04T01:51:49.570Z,0.2
2022-12-04T01:53:50.690Z,0.1
2022-12-04T01:55:51.826Z,0.2
2022-12-04T01:57:56.199Z,0.3
2022-12-04T01:59:57.500Z,0.3
2022-12-04T02:01:58.516Z,0.3
2022-12-04T02:03:59.541Z,0.2
2022-12-04T02:06:00.670Z,0.2
2022-12-04T02:08:01.877Z,0.2
2022-12-04T02:10:02.880Z,0.2
2022-12-04T02:12:07.255Z,0.2
2022-12-04T02:14:08.381Z,0.1
2022-12-04T02:16:09.547Z,0.1
2022-12-04T02:18:10.617Z,0.2
2022-12-04T02:20:11.736Z,0.1
2022-12-04T02:28:19.466Z,0.1
2022-12-04T02:30:20.575Z,0.1
2022-12-04T02:36:23.914Z,0.1
2022-12-04T02:38:25.033Z,0.1
2022-12-04T02:40:29.406Z,0.1
2022-12-04T02:42:30.496Z,0.1
2022-12-04T02:44:31.609Z,0.1
2022-12-04T02:53:00.806Z,0.1
2022-12-04T02:55:06.775Z,0.1
2022-12-04T02:57:03.059Z,0.1
2022-12-04T02:59:04.152Z,0.1
2022-12-04T03:03:06.380Z,0.1
2022-12-04T03:05:07.509Z,0.1
2022-12-04T03:07:11.879Z,0.1
2022-12-04T03:09:13.006Z,0.1
2022-12-04T03:11:14.125Z,0.1
2022-12-04T03:13:15.213Z,0.1
2022-12-04T03:15:16.352Z,0.1
2022-12-04T03:17:17.477Z,0
2022-12-04T03:21:22.942Z,0.1
2022-12-04T03:23:24.065Z,0.1
2022-12-04T03:25:25.178Z,0
2022-12-04T03:27:26.287Z,0.1
2022-12-04T03:33:29.620Z,0
2022-12-04T03:37:35.236Z,0
2022-12-04T03:39:36.197Z,0.1
2022-12-04T03:40:38.384Z,0
2022-12-04T03:42:39.639Z,0
2022-12-04T03:44:40.627Z,0
2022-12-04T03:46:41.800Z,0
2022-12-04T03:48:46.112Z,0.1
2022-12-04T03:50:47.220Z,0.1
2022-12-04T03:52:48.375Z,0.1
2022-12-04T03:54:49.450Z,0
2022-12-04T03:56:50.546Z,0
2022-12-04T03:58:51.681Z,0.1
2022-12-04T04:00:52.780Z,0.1
2022-12-04T04:02:57.204Z,0.1
2022-12-04T04:04:58.246Z,0.1
2022-12-04T04:06:59.335Z,0.1
2022-12-04T04:09:00.442Z,0.1
2022-12-04T04:11:01.548Z,0.1
2022-12-04T04:13:02.642Z,0.1
2022-12-04T04:15:03.788Z,0.1
2022-12-04T04:17:08.139Z,0.1
2022-12-04T04:19:09.254Z,0.1
2022-12-04T04:21:10.379Z,0.1
2022-12-04T04:23:11.471Z,0.1
2022-12-04T04:25:12.593Z,0
2022-12-04T04:27:13.706Z,0
2022-12-04T04:29:14.802Z,0.1
2022-12-04T04:31:19.183Z,0
2022-12-04T04:33:20.267Z,0.1
2022-12-04T04:35:21.405Z,0
2022-12-04T04:36:23.620Z,0
2022-12-04T04:38:24.713Z,0
2022-12-04T04:40:25.798Z,0.1
2022-12-04T04:44:31.291Z,0.1
2022-12-04T04:46:32.469Z,0.1
2022-12-04T04:48:33.507Z,0.1
2022-12-04T04:58:42.292Z,0.1
2022-12-04T05:00:43.391Z,0.1
2022-12-04T05:02:44.600Z,0.1
2022-12-04T05:12:53.312Z,0.1
2022-12-04T05:14:54.457Z,0.1
2022-12-04T05:16:58.920Z,0.1
2022-12-04T05:18:56.657Z,0.1
2022-12-04T05:20:57.756Z,0.1
2022-12-04T05:22:58.876Z,0.1
2022-12-04T05:25:00.026Z,0.2
2022-12-04T05:27:04.361Z,0.2
2022-12-04T05:29:05.430Z,0.2
2022-12-04T05:34:09.861Z,0.2
2022-12-04T05:36:10.947Z,0.2
2022-12-04T05:44:18.662Z,0.2
2022-12-04T05:46:19.786Z,0.2
2022-12-04T05:48:20.914Z,0.2
2022-12-04T05:50:22.031Z,0.2
2022-12-04T05:52:23.098Z,0.2
2022-12-04T05:54:27.472Z,0.2
2022-12-04T05:56:28.593Z,0.2
2022-12-04T05:58:29.693Z,0.2
2022-12-04T06:00:30.786Z,0.2
2022-12-04T06:02:32.076Z,0.2
2022-12-04T06:04:33.045Z,0.2
2022-12-04T06:06:34.140Z,0.2
2022-12-04T06:08:38.514Z,0.3
2022-12-04T06:10:39.613Z,0.3
2022-12-04T06:12:40.725Z,0.2
2022-12-04T06:14:41.854Z,0.2
2022-12-04T06:16:43.059Z,0.3
2022-12-04T06:18:44.058Z,0.3
2022-12-04T06:20:45.209Z,0.2
2022-12-04T06:22:49.573Z,0.2
2022-12-04T06:24:50.686Z,0.2
2022-12-04T06:27:25.500Z,0.2
2022-12-04T06:29:20.301Z,0.2
2022-12-04T06:31:21.539Z,0.2
2022-12-04T06:33:22.541Z,0.2
2022-12-04T06:35:26.907Z,0.2
2022-12-04T06:37:28.010Z,0.2
2022-12-04T06:39:29.131Z,0.2
2022-12-04T06:41:30.241Z,0.2
2022-12-04T06:43:31.376Z,0.2
2022-12-04T06:45:32.523Z,0.2
2022-12-04T06:47:35.143Z,0.3
2022-12-04T06:49:39.456Z,0.3
2022-12-04T06:51:40.570Z,0.2
2022-12-04T06:53:41.656Z,0.2
2022-12-04T06:55:42.772Z,0.2
2022-12-04T06:57:43.868Z,0.2
2022-12-04T06:59:44.990Z,0.2
2022-12-04T07:01:46.099Z,0.2
2022-12-04T07:03:51.769Z,0.3
2022-12-04T07:05:51.579Z,0.3
2022-12-04T07:07:52.712Z,0.3
2022-12-04T07:09:54.108Z,0.3
2022-12-04T07:11:54.983Z,0.3
2022-12-04T07:13:56.030Z,0.3
2022-12-04T07:15:57.150Z,0.3
2022-12-04T07:18:01.535Z,0.3
2022-12-04T07:20:02.642Z,0.3
2022-12-04T07:22:03.772Z,0.3
2022-12-04T07:35:15.880Z,0.3
2022-12-04T07:37:16.979Z,0.3
2022-12-04T07:45:24.699Z,0.2
2022-12-04T07:47:25.801Z,0.2
2022-12-04T07:51:28.027Z,0.2
2022-12-04T07:53:29.136Z,0.2
2022-12-04T07:55:30.244Z,0.2
2022-12-04T07:57:31.359Z,0.2
2022-12-04T07:59:35.716Z,0.2
2022-12-04T08:01:36.932Z,0.2
2022-12-04T08:03:42.104Z,0.2
2022-12-04T08:05:39.056Z,0.2
2022-12-04T08:07:40.213Z,0.2
2022-12-04T08:09:41.287Z,0.2
2022-12-04T08:11:42.398Z,0.2
2022-12-04T08:13:46.766Z,0.2
2022-12-04T08:15:47.875Z,0.2
2022-12-04T08:17:48.969Z,0.2
2022-12-04T08:20:52.276Z,0.2
2022-12-04T08:22:53.508Z,0.2
2022-12-04T08:24:54.511Z,0.2
2022-12-04T08:26:58.886Z,0.2
2022-12-04T08:28:59.972Z,0.2
2022-12-04T08:31:01.121Z,0.2
2022-12-04T08:33:02.229Z,0.2
2022-12-04T08:35:03.324Z,0.2
2022-12-04T08:39:05.529Z,0.2
2022-12-04T08:41:09.897Z,0.3
2022-12-04T08:43:11.017Z,0.3
2022-12-04T08:45:12.110Z,0.3
2022-12-04T08:47:13.216Z,0.3
2022-12-04T08:51:15.461Z,0.4
2022-12-04T08:53:16.597Z,0.4
2022-12-04T08:55:20.946Z,0.4
2022-12-04T08:57:22.065Z,0.4
2022-12-04T08:59:23.160Z,0.4
2022-12-04T09:01:24.317Z,0.4
2022-12-04T09:03:30.764Z,0.4
2022-12-04T09:05:26.499Z,0.5
2022-12-04T09:07:27.655Z,0.5
2022-12-04T09:09:32.127Z,0.4
2022-12-04T09:11:33.264Z,0.5
2022-12-04T09:13:34.339Z,0.5
2022-12-04T09:16:37.642Z,0.5
2022-12-04T09:20:39.892Z,0.5
2022-12-04T09:23:02.765Z,0.5
2022-12-04T09:24:45.359Z,0.6
2022-12-04T09:26:46.475Z,0.6
2022-12-04T09:28:47.585Z,0.6
2022-12-04T09:30:48.758Z,0.6
2022-12-04T09:32:49.787Z,0.6
2022-12-04T09:34:52.815Z,0.6
2022-12-04T09:36:55.300Z,0.6
2022-12-04T09:38:56.445Z,0.6
2022-12-04T09:40:57.548Z,0.6
2022-12-04T09:42:58.640Z,0.6
2022-12-04T09:44:59.774Z,0.7
2022-12-04T09:47:01.032Z,0.7
2022-12-04T09:49:02.025Z,0.7
2022-12-04T09:51:06.390Z,0.7
2022-12-04T09:53:07.502Z,0.7
2022-12-04T09:55:08.637Z,0.7
2022-12-04T09:57:09.762Z,0.7
2022-12-04T09:59:10.884Z,0.7
2022-12-04T10:01:12.003Z,0.8
2022-12-04T10:03:13.228Z,0.8
2022-12-04T10:05:17.579Z,0.8
2022-12-04T10:07:18.627Z,0.7
2022-12-04T10:09:19.742Z,0.8
2022-12-04T10:11:48.236Z,0.8
2022-12-04T10:13:49.339Z,0.8
2022-12-04T10:15:50.527Z,0.8
2022-12-04T10:17:54.870Z,0.8
2022-12-04T10:19:56.407Z,0.9
2022-12-04T10:21:57.123Z,0.9
2022-12-04T10:25:59.356Z,0.8
2022-12-04T10:28:00.487Z,0.8
2022-12-04T10:30:01.614Z,0.9
2022-12-04T10:32:06.002Z,0.9
2022-12-04T10:34:07.094Z,0.9
2022-12-04T10:36:08.254Z,0.9
2022-12-04T10:38:09.378Z,0.9
2022-12-04T10:42:11.620Z,0.9
2022-12-04T10:44:12.735Z,0.9
2022-12-04T10:46:17.156Z,0.9
2022-12-04T10:48:18.253Z,0.9
2022-12-04T10:50:19.370Z,0.9
2022-12-04T10:52:20.538Z,0.9
2022-12-04T10:54:21.593Z,0.9
2022-12-04T10:56:22.731Z,1
2022-12-04T10:58:23.852Z,1
2022-12-04T11:00:28.221Z,1
2022-12-04T11:02:29.556Z,1.1
2022-12-04T11:04:30.469Z,1
2022-12-04T11:05:32.701Z,1.1
2022-12-04T11:07:33.878Z,1.1
2022-12-04T11:09:34.956Z,1.1
2022-12-04T11:11:36.124Z,1.1
2022-12-04T11:13:40.460Z,1.1
2022-12-04T11:15:41.638Z,1.1
2022-12-04T11:17:42.737Z,1.1
2022-12-04T11:19:43.884Z,1.1
2022-12-04T11:21:45.013Z,1.2
2022-12-04T11:23:46.149Z,1.2
2022-12-04T11:25:47.278Z,1.2
2022-12-04T11:27:51.664Z,1.2
2022-12-04T11:29:53.106Z,1.2
2022-12-04T11:31:54.022Z,1.2
2022-12-04T11:33:55.045Z,1.1
2022-12-04T11:35:56.186Z,1.2
2022-12-04T11:37:57.307Z,1.2
2022-12-04T11:44:03.995Z,1.2
2022-12-04T11:46:05.193Z,1.2
2022-12-04T11:48:06.291Z,1.2
2022-12-04T11:54:09.658Z,1.3
2022-12-04T11:56:14.040Z,1.2
2022-12-04T11:58:15.192Z,1.2
2022-12-04T12:00:16.414Z,1.3
2022-12-04T12:01:18.489Z,1.3
2022-12-04T12:03:19.681Z,1.3
2022-12-04T12:05:20.773Z,1.3
2022-12-04T12:07:21.903Z,1.3
2022-12-04T12:11:27.429Z,1.3
2022-12-04T12:13:28.587Z,1.3
2022-12-04T12:15:29.687Z,1.3
2022-12-04T12:17:30.820Z,1.4
2022-12-04T12:19:31.961Z,1.3
2022-12-04T12:21:33.106Z,1.3
2022-12-04T12:23:37.487Z,1.3
2022-12-04T12:25:38.611Z,1.3
2022-12-04T12:27:39.786Z,1.4
2022-12-04T12:31:42.072Z,1.4
2022-12-04T12:37:50.197Z,1.4
2022-12-04T12:39:51.367Z,1.4
2022-12-04T12:41:52.491Z,1.4
2022-12-04T12:43:53.657Z,1.4
2022-12-04T12:47:55.902Z,1.4
2022-12-04T12:49:57.341Z,1.4
2022-12-04T12:52:01.468Z,1.4
2022-12-04T12:54:02.609Z,1.4
2022-12-04T12:56:03.733Z,1.4
2022-12-04T12:57:05.942Z,1.4
2022-12-04T12:59:07.095Z,1.4
2022-12-04T13:01:08.291Z,1.4
2022-12-04T13:03:09.494Z,1.3
2022-12-04T13:05:13.776Z,1.4
2022-12-04T13:09:16.055Z,1.4
2022-12-04T13:17:20.607Z,1.4
2022-12-04T13:19:25.031Z,1.4
2022-12-04T13:25:28.451Z,1.3
2022-12-04T13:27:29.603Z,1.3
2022-12-04T13:29:30.745Z,1.4
2022-12-04T13:31:31.966Z,1.3
2022-12-04T13:33:36.283Z,1.4
2022-12-04T13:35:37.442Z,1.3
2022-12-04T13:37:38.530Z,1.4
2022-12-04T13:39:39.683Z,1.4
2022-12-04T13:41:40.840Z,1.4
2022-12-04T13:45:43.159Z,1.4
2022-12-04T13:47:47.532Z,1.3
2022-12-04T13:51:49.770Z,1.3
2022-12-04T13:58:20.547Z,1.3
2022-12-04T14:00:24.954Z,1.4
2022-12-04T14:02:26.145Z,1.4
2022-12-04T14:04:27.216Z,1.4
2022-12-04T14:08:29.491Z,1.3
2022-12-04T14:10:30.657Z,1.3
2022-12-04T14:12:31.785Z,1.3
2022-12-04T14:14:36.169Z,1.3
2022-12-04T14:16:37.430Z,1.4
2022-12-04T14:18:38.490Z,1.4
2022-12-04T14:20:39.613Z,1.4
2022-12-04T14:22:40.797Z,1.3
2022-12-04T14:24:42.033Z,1.3
2022-12-04T14:27:10.117Z,1.4
2022-12-04T14:28:47.448Z,1.3
2022-12-04T14:30:48.635Z,1.4
2022-12-04T14:32:49.732Z,1.4
2022-12-04T14:34:50.865Z,1.4
2022-12-04T14:36:52.023Z,1.4
2022-12-04T14:38:53.158Z,1.4
2022-12-04T14:40:54.306Z,1.4
2022-12-04T14:42:58.665Z,1.4
2022-12-04T14:44:59.932Z,1.5
2022-12-04T14:47:00.970Z,1.5
2022-12-04T14:48:03.212Z,1.5
2022-12-04T14:50:04.454Z,1.5
2022-12-04T14:52:05.458Z,1.5
2022-12-04T14:54:06.582Z,1.5
2022-12-04T14:56:10.985Z,1.5
2022-12-04T14:58:12.137Z,1.5
2022-12-04T15:00:13.268Z,1.5
2022-12-04T15:02:14.368Z,1.5
2022-12-04T15:06:16.668Z,1.6
2022-12-04T15:08:17.902Z,1.6
2022-12-04T15:10:22.253Z,1.6
2022-12-04T15:12:23.358Z,1.6
2022-12-04T15:14:24.512Z,1.6
2022-12-04T15:16:25.679Z,1.6
2022-12-04T15:18:26.802Z,1.6
2022-12-04T15:20:27.965Z,1.7
2022-12-04T15:22:29.084Z,1.7
2022-12-04T15:24:33.479Z,1.7
2022-12-04T15:26:34.674Z,1.7
2022-12-04T15:28:35.788Z,1.7
2022-12-04T15:30:36.926Z,1.7
2022-12-04T15:32:38.080Z,1.7
2022-12-04T15:34:39.179Z,1.7
2022-12-04T15:36:40.484Z,1.7
2022-12-04T15:38:44.783Z,1.7
2022-12-04T15:40:45.884Z,1.7
2022-12-04T15:42:47.028Z,1.8
2022-12-04T15:45:50.377Z,1.8
2022-12-04T15:47:51.511Z,1.8
2022-12-04T15:49:52.821Z,1.8
2022-12-04T15:51:57.098Z,1.9
2022-12-04T15:53:58.258Z,1.9
2022-12-04T15:55:59.375Z,1.9
2022-12-04T15:58:00.523Z,1.9
2022-12-04T16:00:01.758Z,1.9
2022-12-04T16:02:02.901Z,1.9
2022-12-04T16:04:04.018Z,2
2022-12-04T16:06:08.399Z,2
2022-12-04T16:08:09.650Z,2
2022-12-04T16:10:10.711Z,2
2022-12-04T16:12:11.844Z,2
2022-12-04T16:14:13.029Z,2
2022-12-04T16:18:15.339Z,2
2022-12-04T16:20:19.751Z,2
2022-12-04T16:22:20.896Z,2
2022-12-04T16:24:22.078Z,2
2022-12-04T16:28:24.404Z,2
2022-12-04T16:30:25.547Z,2
2022-12-04T16:32:26.702Z,2.1
2022-12-04T16:34:31.130Z,2
2022-12-04T16:36:32.300Z,2
2022-12-04T16:38:33.440Z,2.1
2022-12-04T16:39:38.312Z,2.1
2022-12-04T16:45:39.101Z,2.1
2022-12-04T16:47:43.527Z,2.1
2022-12-04T16:49:44.699Z,2.1
2022-12-04T16:51:45.854Z,2.1
2022-12-04T16:53:47.019Z,2.1
2022-12-04T16:55:48.170Z,2.1
2022-12-04T16:57:49.331Z,2.1
2022-12-04T16:59:50.526Z,2.1
2022-12-04T17:01:54.989Z,2.2
2022-12-04T17:03:56.142Z,2.2
2022-12-04T17:05:57.265Z,2.2
2022-12-04T17:07:58.496Z,2.2
2022-12-04T17:09:59.577Z,2.2
2022-12-04T17:12:00.740Z,2.2
2022-12-04T17:14:02.029Z,2.2
2022-12-04T17:16:06.388Z,2.1
2022-12-04T17:18:11.985Z,2.1
2022-12-04T17:20:08.667Z,2.1
2022-12-04T17:22:09.826Z,2.1
2022-12-04T17:24:10.998Z,2.1
2022-12-04T17:26:12.166Z,2.1
2022-12-04T17:28:13.321Z,2.1
2022-12-04T17:30:17.721Z,2
2022-12-04T17:32:18.918Z,2
2022-12-04T17:34:20.077Z,2
2022-12-04T17:40:50.850Z,2
2022-12-04T17:42:55.277Z,2
2022-12-04T17:44:56.599Z,2
2022-12-04T17:46:57.669Z,1.9
2022-12-04T17:49:02.597Z,2
2022-12-04T17:50:59.902Z,1.9
2022-12-04T17:53:01.057Z,1.9
2022-12-04T17:55:02.204Z,1.9
2022-12-04T17:57:06.646Z,1.9
2022-12-04T17:59:07.770Z,1.9
2022-12-04T18:01:08.994Z,1.9
2022-12-04T18:03:10.176Z,2
2022-12-04T18:05:11.260Z,2
2022-12-04T18:11:17.975Z,2
2022-12-04T18:15:20.289Z,2
2022-12-04T18:17:21.447Z,1.9
2022-12-04T18:23:24.893Z,1.9
2022-12-04T18:30:35.412Z,2
2022-12-04T18:32:36.470Z,2
2022-12-04T18:34:37.614Z,2
2022-12-04T18:36:38.792Z,2
2022-12-04T18:38:43.179Z,2.1
2022-12-04T18:40:44.414Z,2.1
2022-12-04T18:42:45.482Z,2.1
2022-12-04T18:44:46.652Z,2.1
2022-12-04T18:46:47.770Z,2.1
2022-12-04T18:48:48.926Z,2.1
2022-12-04T18:50:50.194Z,2.1
2022-12-04T18:52:59.975Z,2
2022-12-04T18:54:55.663Z,2
2022-12-04T18:56:56.829Z,2
2022-12-04T18:58:57.960Z,2
2022-12-04T19:00:59.305Z,2
2022-12-04T19:03:00.316Z,2
2022-12-04T19:05:01.502Z,2
2022-12-04T19:07:05.908Z,2
2022-12-04T19:09:07.050Z,2
2022-12-04T19:11:08.255Z,2
2022-12-04T19:13:09.321Z,2
2022-12-04T19:15:10.497Z,2
2022-12-04T19:17:11.637Z,2.1
2022-12-04T19:19:12.774Z,2
2022-12-04T19:21:17.199Z,2
2022-12-04T19:23:18.347Z,2
2022-12-04T19:25:19.470Z,2
2022-12-04T19:26:21.675Z,2.1
2022-12-04T19:28:22.837Z,2
2022-12-04T19:30:23.975Z,2.1
2022-12-04T19:32:25.188Z,2.1
2022-12-04T19:34:29.546Z,2.1
2022-12-04T19:36:30.686Z,2.1
2022-12-04T19:38:31.852Z,2
2022-12-04T19:40:33.006Z,2.1
2022-12-04T19:44:49.372Z,2.1
2022-12-04T19:46:36.486Z,2.1
2022-12-04T19:48:40.888Z,2.1
2022-12-04T19:50:42.047Z,2
2022-12-04T19:52:43.220Z,2.1
2022-12-04T19:54:44.369Z,2.1
2022-12-04T19:56:45.522Z,2.1
2022-12-04T19:58:46.672Z,2.1
2022-12-04T20:00:47.864Z,2.1
2022-12-04T20:02:52.294Z,2.1
2022-12-04T20:04:53.361Z,2.1
2022-12-04T20:08:56.014Z,2.1
2022-12-04T20:10:57.174Z,2.1
2022-12-04T20:12:58.329Z,2.1
2022-12-04T20:14:59.517Z,2.1
2022-12-04T20:17:04.054Z,2.1
2022-12-04T20:19:05.049Z,2.1
2022-12-04T20:21:06.216Z,2.2
2022-12-04T20:26:10.750Z,2.2
2022-12-04T20:28:14.596Z,2.2
2022-12-04T20:30:16.330Z,2.2
2022-12-04T20:32:17.515Z,2.2
2022-12-04T20:34:18.672Z,2.2
2022-12-04T20:36:19.801Z,2.3
2022-12-04T20:38:20.971Z,2.3
2022-12-04T20:40:22.128Z,2.3
2022-12-04T20:42:24.136Z,2.3
2022-12-04T20:44:27.711Z,2.3
2022-12-04T20:46:29.034Z,2.3
2022-12-04T20:48:30.032Z,2.3
2022-12-04T20:50:31.188Z,2.3
2022-12-04T20:52:32.366Z,2.3
2022-12-04T20:54:40.772Z,2.3
2022-12-04T20:56:34.648Z,2.3
2022-12-04T20:58:39.100Z,2.3
2022-12-04T21:00:40.265Z,2.4
2022-12-04T21:02:41.459Z,2.4
2022-12-04T21:04:42.573Z,2.4
2022-12-04T21:06:43.725Z,2.4
2022-12-04T21:08:44.908Z,2.4
2022-12-04T21:10:46.077Z,2.5
2022-12-04T21:12:50.518Z,2.5
2022-12-04T21:14:51.664Z,2.5
2022-12-04T21:16:52.819Z,2.5
2022-12-04T21:19:21.282Z,2.5
2022-12-04T21:21:22.427Z,2.5
2022-12-04T21:23:23.566Z,2.5
2022-12-04T21:25:27.984Z,2.5
2022-12-04T21:27:29.154Z,2.5
2022-12-04T21:33:32.641Z,2.6
2022-12-04T21:35:33.825Z,2.6
2022-12-04T21:37:34.959Z,2.5
2022-12-04T21:41:40.570Z,2.6
2022-12-04T21:43:41.732Z,2.6
2022-12-04T21:45:42.914Z,2.6
2022-12-04T21:47:44.118Z,2.6
2022-12-04T21:49:45.256Z,2.6
2022-12-04T21:51:57.434Z,2.6
2022-12-04T22:01:55.614Z,2.7
2022-12-04T22:03:56.715Z,2.7
2022-12-04T22:13:06.855Z,2.8
2022-12-04T22:15:07.999Z,2.8
2022-12-04T22:17:09.193Z,2.8
2022-12-04T22:19:10.368Z,2.8
2022-12-04T22:21:14.951Z,2.8
2022-12-04T22:23:15.999Z,2.8
2022-12-04T22:25:17.170Z,2.8
2022-12-04T22:27:18.293Z,2.8
2022-12-04T22:31:20.818Z,2.9
2022-12-04T22:33:21.792Z,2.8
2022-12-04T22:35:26.261Z,2.9
2022-12-04T22:37:27.423Z,2.9
2022-12-04T22:39:28.592Z,2.9
2022-12-04T22:41:29.771Z,2.9
2022-12-04T22:43:32.426Z,2.9
2022-12-04T22:45:32.140Z,3
2022-12-04T22:47:33.312Z,2.9
2022-12-04T22:49:37.752Z,3
2022-12-04T22:51:39.025Z,2.9
2022-12-04T22:53:40.064Z,3
2022-12-04T22:55:41.258Z,3
2022-12-04T22:57:42.409Z,3
2022-12-04T22:59:43.589Z,3
2022-12-04T23:01:44.754Z,3
2022-12-04T23:03:49.213Z,3
2022-12-04T23:05:50.370Z,3
2022-12-04T23:07:51.633Z,3
2022-12-04T23:14:57.257Z,3.1
2022-12-04T23:17:01.776Z,3.1
2022-12-04T23:19:02.828Z,3.1
2022-12-04T23:21:04.028Z,3.1
2022-12-04T23:25:06.356Z,3.1
2022-12-04T23:27:07.541Z,3.1
2022-12-04T23:31:13.170Z,3.1
2022-12-04T23:33:14.300Z,3.1
2022-12-04T23:35:15.471Z,3.1
2022-12-04T23:37:16.646Z,3.1
2022-12-04T23:39:17.805Z,3.1
2022-12-04T23:41:18.976Z,3.2
2022-12-04T23:43:20.127Z,3.1
2022-12-04T23:45:24.554Z,3.1
2022-12-04T23:47:25.712Z,3.2
2022-12-04T23:49:26.920Z,3.1
2022-12-04T23:51:28.096Z,3.2
2022-12-04T23:53:29.255Z,3.2
2022-12-04T23:55:34.362Z,3.2
2022-12-04T23:57:31.582Z,3.2
2022-12-04T23:59:35.972Z,3.2
